地図

経路データ

SID SEASON NUMBER BASIN SUBBASIN NAME ISO_TIME NATURE LAT LON WMO_WIND WMO_PRES WMO_AGENCY TRACK_TYPE DIST2LAND LANDFALL IFLAG USA_AGENCY USA_ATCF_ID USA_LAT USA_LON USA_RECORD USA_STATUS USA_WIND USA_PRES USA_SSHS USA_R34_NE USA_R34_SE USA_R34_SW USA_R34_NW USA_R50_NE USA_R50_SE USA_R50_SW USA_R50_NW USA_R64_NE USA_R64_SE USA_R64_SW USA_R64_NW USA_POCI USA_ROCI USA_RMW USA_EYE TOKYO_LAT TOKYO_LON TOKYO_GRADE TOKYO_WIND TOKYO_PRES TOKYO_R50_DIR TOKYO_R50_LONG TOKYO_R50_SHORT TOKYO_R30_DIR TOKYO_R30_LONG TOKYO_R30_SHORT TOKYO_LAND CMA_LAT CMA_LON CMA_CAT CMA_WIND CMA_PRES HKO_LAT HKO_LON HKO_CAT HKO_WIND HKO_PRES NEWDELHI_LAT NEWDELHI_LON NEWDELHI_GRADE NEWDELHI_WIND NEWDELHI_PRES NEWDELHI_CI NEWDELHI_DP NEWDELHI_POCI REUNION_LAT REUNION_LON REUNION_TYPE REUNION_WIND REUNION_PRES REUNION_TNUM REUNION_CI REUNION_RMW REUNION_R34_NE REUNION_R34_SE REUNION_R34_SW REUNION_R34_NW REUNION_R50_NE REUNION_R50_SE REUNION_R50_SW REUNION_R50_NW REUNION_R64_NE REUNION_R64_SE REUNION_R64_SW REUNION_R64_NW BOM_LAT BOM_LON BOM_TYPE BOM_WIND BOM_PRES BOM_TNUM BOM_CI BOM_RMW BOM_R34_NE BOM_R34_SE BOM_R34_SW BOM_R34_NW BOM_R50_NE BOM_R50_SE BOM_R50_SW BOM_R50_NW BOM_R64_NE BOM_R64_SE BOM_R64_SW BOM_R64_NW BOM_ROCI BOM_POCI BOM_EYE BOM_POS_METHOD BOM_PRES_METHOD NADI_LAT NADI_LON NADI_CAT NADI_WIND NADI_PRES WELLINGTON_LAT WELLINGTON_LON WELLINGTON_WIND WELLINGTON_PRES DS824_LAT DS824_LON DS824_STAGE DS824_WIND DS824_PRES TD9636_LAT TD9636_LON TD9636_STAGE TD9636_WIND TD9636_PRES TD9635_LAT TD9635_LON TD9635_WIND TD9635_PRES TD9635_ROCI NEUMANN_LAT NEUMANN_LON NEUMANN_CLASS NEUMANN_WIND NEUMANN_PRES MLC_LAT MLC_LON MLC_CLASS MLC_WIND MLC_PRES USA_GUST BOM_GUST BOM_GUST_PER REUNION_GUST REUNION_GUST_PER USA_SEAHGT USA_SEARAD_NE USA_SEARAD_SE USA_SEARAD_SW USA_SEARAD_NW STORM_SPEED STORM_DIR
1970040S13101 1970 12 SI WA JUDY 1970-02-09 01:00:00 NR -13.0000 101.000 1006 bom main 833 833 ______O_______ -1 -13.0000 101.000 1006 15 263
1970040S13101 1970 12 SI WA JUDY 1970-02-09 03:00:00 NR -13.0628 100.508 main 873 873 ______P_______ -1 -13.0628 100.508 14 263
1970040S13101 1970 12 SI WA JUDY 1970-02-09 06:00:00 NR -13.1524 99.7956 main 929 929 ______P_______ -1 -13.1524 99.7956 13 263
1970040S13101 1970 12 SI WA JUDY 1970-02-09 09:00:00 NR -13.2328 99.1465 main 979 979 ______P_______ -1 -13.2328 99.1465 12 263
1970040S13101 1970 12 SI WA JUDY 1970-02-09 12:00:00 TS -13.3000 98.6000 bom main 1025 1025 O_____O__OO___ jtwc_sh SH151970 -13.3000 98.6000 -1 -13.3000 98.6000 -13.3000 98.6000 TC -13.3000 98.6000 7 9 263
1970040S13101 1970 12 SI WA JUDY 1970-02-09 15:00:00 TS -13.3523 98.1876 main 1064 1064 P_____P__PP___ SH151970 -13.3501 98.2025 -1 -13.3530 98.1735 -13.3501 98.2025 TC -13.3552 98.1861 7 8 263
1970040S13101 1970 12 SI WA JUDY 1970-02-09 18:00:00 TS -13.4019 97.7949 bom main 1096 1096 O_____O__OP___ jtwc_sh SH151970 -13.4000 97.8000 -1 -13.4000 97.8000 -13.4000 97.8000 TC -13.4081 97.7777 7 8 263
1970040S13101 1970 12 SI WA JUDY 1970-02-09 21:00:00 TS -13.4517 97.3895 main 1136 1136 P_____P__PP___ SH151970 -13.4500 97.3925 -1 -13.4500 97.3925 -13.4500 97.3925 TC -13.4569 97.3804 7 8 263
1970040S13101 1970 12 SI WA JUDY 1970-02-10 00:00:00 TS -13.5000 97.0000 1004 bom main 1170 1170 O_____O__OO_O_ jtwc_sh SH151970 -13.5000 97.0000 -1 -13.5000 97.0000 1004 -13.5000 97.0000 TC 35 -13.5000 97.0000 2 -13.5000 97.0000 TC 25 7 263
1970040S13101 1970 12 SI WA JUDY 1970-02-10 03:00:00 TS -13.5475 96.6372 main 1203 1210 P_____P__PP_P_ SH151970 -13.5499 96.6350 -1 -13.5499 96.6350 -13.5499 96.6350 TC 35 -13.5376 96.6411 2 -13.5526 96.6426 TC 25 7 262
1970040S13101 1970 12 SI WA JUDY 1970-02-10 06:00:00 TS -13.5952 96.3010 bom main 1236 1236 O_____O__OP_O_ jtwc_sh SH151970 -13.6000 96.3000 -1 -13.6000 96.3000 -13.6000 96.3000 TC 35 -13.5773 96.3048 2 -13.6000 96.3000 TC 25 6 262
1970040S13101 1970 12 SI WA JUDY 1970-02-10 09:00:00 TS -13.6396 95.9817 main 1262 1262 P_____P__PP_P_ SH151970 -13.6425 95.9775 -1 -13.6425 95.9775 -13.6425 95.9775 TC 35 -13.6283 95.9911 2 -13.6425 95.9850 TC 27 6 260
1970040S13101 1970 12 SI WA JUDY 1970-02-10 12:00:00 TS -13.7000 95.7000 bom main 1295 1295 O_____O__OO_O_ jtwc_sh SH151970 -13.7000 95.7000 -1 -13.7000 95.7000 -13.7000 95.7000 TC 35 -13.7000 95.7000 2 -13.7000 95.7000 TC 30 5 253
1970040S13101 1970 12 SI WA JUDY 1970-02-10 15:00:00 TS -13.7885 95.4855 main 1319 1319 P_____P__PP_P_ SH151970 -13.7849 95.4999 -1 -13.7849 95.4999 -13.7849 95.4999 TC 35 -13.8027 95.4850 2 -13.7849 95.4425 TC 30 5 243
1970040S13101 1970 12 SI WA JUDY 1970-02-10 18:00:00 TS -13.9053 95.2764 bom main 1343 1343 O_____O__OP_O_ jtwc_sh SH151970 -13.9000 95.3000 -1 -13.9000 95.3000 -13.9000 95.3000 TC 35 -13.9263 95.2821 2 -13.9000 95.2000 TC 30 5 239
1970040S13101 1970 12 SI WA JUDY 1970-02-10 21:00:00 TS -14.0507 95.0441 main 1380 1380 P_____P__PP_P_ SH151970 -14.0498 95.0600 -1 -14.0498 95.0600 -14.0498 95.0600 TC 35 -14.0618 95.0381 2 -14.0422 95.0024 TC 32 6 242
1970040S13101 1970 12 SI WA JUDY 1970-02-11 00:00:00 TS -14.2000 94.7000 1000 bom main 1410 1410 O_____O__OO_O_ jtwc_sh SH151970 -14.2000 94.7000 -1 -14.2000 94.7000 1000 -14.2000 94.7000 TC 35 -14.2000 94.7000 2 -14.2000 94.7000 TC 35 9 253
1970040S13101 1970 12 SI WA JUDY 1970-02-11 03:00:00 TS -14.3183 94.1576 main 1454 1461 P_____P__PP_P_ SH151970 -14.3001 94.1449 -1 -14.3001 94.1449 -14.3001 94.1449 TC 35 -14.3336 94.2008 2 -14.3577 94.1526 TC 35 12 258
1970040S13101 1970 12 SI WA JUDY 1970-02-11 06:00:00 TS -14.4331 93.5210 bom main 1512 1512 O_____O__OP_O_ jtwc_sh SH151970 -14.4000 93.5000 -1 -14.4000 93.5000 -14.4000 93.5000 TC 35 -14.4657 93.6052 2 -14.5000 93.5000 TC 35 12 258
1970040S13101 1970 12 SI WA JUDY 1970-02-11 09:00:00 TS -14.5708 92.9114 main 1572 1572 P_____P__PP_P_ SH151970 -14.5498 92.9000 -1 -14.5498 92.9000 -14.5498 92.9000 TC 35 -14.5898 92.9570 2 -14.6148 92.9000 TC 37 12 257
1970040S13101 1970 12 SI WA JUDY 1970-02-11 12:00:00 TS -14.7000 92.3000 bom main 1624 1624 O_____O__OO_O_ jtwc_sh SH151970 -14.7000 92.3000 -1 -14.7000 92.3000 -14.7000 92.3000 TC 35 -14.7000 92.3000 2 -14.7000 92.3000 TC 40 12 259
1970040S13101 1970 12 SI WA JUDY 1970-02-11 15:00:00 TS -14.7977 91.6861 main 1667 1667 P_____P__PP_P_ SH151970 -14.8148 91.7000 -1 -14.8148 91.7000 -14.8148 91.7000 TC 35 -14.7940 91.6310 2 -14.7498 91.6999 TC 40 12 262
1970040S13101 1970 12 SI WA JUDY 1970-02-11 18:00:00 TS -14.8747 91.0745 bom main 1709 1714 O_____O__OP_O_ jtwc_sh SH151970 -14.9000 91.1000 -1 -14.9000 91.1000 -14.9000 91.1000 TC 35 -14.8734 90.9726 2 -14.8000 91.1000 TC 40 12 263
1970040S13101 1970 12 SI WA JUDY 1970-02-11 21:00:00 TS -14.9428 90.4306 main 1748 1748 P_____P__PP_P_ SH151970 -14.9577 90.4475 -1 -14.9577 90.4475 -14.9577 90.4475 TC 35 -14.9409 90.3779 2 -14.9002 90.4327 TC 42 11 264
1970040S13101 1970 12 SI MM JUDY 1970-02-12 00:00:00 TS -15.0000 89.9000 996 bom main 1787 1787 O_____O__OO_O_ jtwc_sh SH151970 -15.0000 89.9000 -1 -15.0000 89.9000 996 -15.0000 89.9000 TC 35 -15.0000 89.9000 2 -15.0000 89.9000 TC 45 8 262
1970040S13101 1970 12 SI MM JUDY 1970-02-12 03:00:00 TS -15.0533 89.6076 main 1815 1815 P_____P__PP_P_ SH151970 -15.0498 89.5750 -1 -15.0498 89.5750 -15.0498 89.5750 TC 35 -15.0601 89.6229 2 -15.0572 89.6899 TC 45 4 257
1970040S13101 1970 12 SI MM JUDY 1970-02-12 06:00:00 TS -15.1027 89.4520 bom main 1821 1828 O_____O__OP_O_ jtwc_sh SH151970 -15.1000 89.4000 -1 -15.1000 89.4000 -15.1000 89.4000 TC 35 -15.1136 89.4598 2 -15.1000 89.6000 TC 45 3 249
1970040S13101 1970 12 SI MM JUDY 1970-02-12 09:00:00 TS -15.1535 89.3373 main 1843 1843 P_____P__PP_P_ SH151970 -15.1499 89.3075 -1 -15.1499 89.3075 -15.1499 89.3075 TC 35 -15.1604 89.3417 2 -15.1575 89.4225 TC 47 3 248
1970040S13101 1970 12 SI MM JUDY 1970-02-12 12:00:00 TS -15.2000 89.2000 bom main 1849 1849 O_____O__OO_O_ jtwc_sh SH151970 -15.2000 89.2000 -1 -15.2000 89.2000 -15.2000 89.2000 TC 35 -15.2000 89.2000 2 -15.2000 89.2000 TC 50 4 258
1970040S13101 1970 12 SI MM JUDY 1970-02-12 15:00:00 TS -15.2402 88.9225 main 1868 1868 P_____P__PP_P_ SH151970 -15.2576 88.9300 -1 -15.2576 88.9300 -15.2576 88.9300 TC 35 -15.2284 88.9075 2 -15.2000 88.9149 TC 50 6 263
1970040S13101 1970 12 SI MM JUDY 1970-02-12 18:00:00 TS -15.2701 88.5970 bom main 1897 1897 O_____O__OP_O_ jtwc_sh SH151970 -15.3000 88.6000 -1 -15.3000 88.6000 -15.3000 88.6000 TC 35 -15.2504 88.5850 2 -15.2000 88.6000 TC 50 6 266
1970040S13101 1970 12 SI MM JUDY 1970-02-12 21:00:00 TS -15.2830 88.2760 main 1917 1917 P_____P__PP_P_ SH151970 -15.3000 88.2775 -1 -15.3000 88.2775 -15.3000 88.2775 TC 35 -15.2722 88.2700 2 -15.2425 88.2775 TC 50 6 267
1970040S13101 1970 12 SI MM JUDY 1970-02-13 00:00:00 TS -15.3000 88.0000 960 bom main 1937 1937 O_____O__OO_O_ jtwc_sh SH151970 -15.3000 88.0000 -1 -15.3000 88.0000 960 -15.3000 88.0000 TC 35 -15.3000 88.0000 2 -15.3000 88.0000 TC 50 4 262
1970040S13101 1970 12 SI MM JUDY 1970-02-13 03:00:00 TS -15.3415 87.8193 main 1950 1950 P_____P__PP_P_ SH151970 -15.3424 87.8200 -1 -15.3424 87.8200 -15.3424 87.8200 TC 35 -15.3304 87.8165 2 -15.3499 87.8200 TC 52 3 252
1970040S13101 1970 12 SI MM JUDY 1970-02-13 06:00:00 TS -15.3939 87.6965 bom main 1966 1966 O_____O__OP_O_ jtwc_sh SH151970 -15.4000 87.7000 -1 -15.4000 87.7000 -15.4000 87.7000 TC 35 -15.3697 87.6824 2 -15.4000 87.7000 TC 55 2 246
1970040S13101 1970 12 SI MM JUDY 1970-02-13 09:00:00 TS -15.4388 87.5904 main 1973 1973 P_____P__PP_P_ SH151970 -15.4425 87.5925 -1 -15.4425 87.5925 -15.4425 87.5925 TC 35 -15.4242 87.5821 2 -15.4425 87.5925 TC 55 2 241
1970040S13101 1970 12 SI MM JUDY 1970-02-13 12:00:00 TS -15.5000 87.5000 bom main 1988 1988 O_____O__OO_O_ jtwc_sh SH151970 -15.5000 87.5000 -1 -15.5000 87.5000 -15.5000 87.5000 TC 35 -15.5000 87.5000 2 -15.5000 87.5000 TC 55 2 232
1970040S13101 1970 12 SI MM JUDY 1970-02-13 15:00:00 TS -15.5895 87.3921 main 2004 2004 P_____P__PP_P_ SH151970 -15.5850 87.3925 -1 -15.5850 87.3925 -15.5850 87.3925 TC 35 -15.6075 87.3904 2 -15.5850 87.3925 TC 55 3 223
1970040S13101 1970 12 SI MM JUDY 1970-02-13 18:00:00 TS -15.7070 87.2995 bom main 2019 2019 O_____O__OP_O_ jtwc_sh SH151970 -15.7000 87.3000 -1 -15.7000 87.3000 -15.7000 87.3000 TC 35 -15.7350 87.2976 2 -15.7000 87.3000 TC 55 3 210
1970040S13101 1970 12 SI MM JUDY 1970-02-13 21:00:00 TS -15.8540 87.2327 main 2043 2043 P_____P__PP_P_ SH151970 -15.8500 87.2350 -1 -15.8500 87.2350 -15.8500 87.2350 TC 35 -15.8700 87.2310 2 -15.8500 87.2275 TC 55 3 199
1970040S13101 1970 12 SI MM JUDY 1970-02-14 00:00:00 TS -16.0000 87.2000 960 bom main 2052 2052 O_____O__OO_O_ jtwc_sh SH151970 -16.0000 87.2000 -1 -16.0000 87.2000 960 -16.0000 87.2000 TC 35 -16.0000 87.2000 2 -16.0000 87.2000 TC 55 3 190
1970040S13101 1970 12 SI MM JUDY 1970-02-14 03:00:00 TS -16.1066 87.1939 main 2060 2060 P_____P__PP_P_ SH151970 -16.1075 87.1775 -1 -16.1075 87.1775 -16.1075 87.1775 TC 35 -16.1031 87.2019 2 -16.1075 87.2350 TC 55 2 172
1970040S13101 1970 12 SI MM JUDY 1970-02-14 06:00:00 TS -16.2000 87.2280 bom main 2069 2062 O_____O__OP_O_ jtwc_sh SH151970 -16.2000 87.2000 -1 -16.2000 87.2000 -16.2000 87.2000 TC 35 -16.1999 87.2400 2 -16.2000 87.3000 TC 55 2 153
1970040S13101 1970 12 SI MM JUDY 1970-02-14 09:00:00 TS -16.2934 87.2966 main 2071 2071 P_____P__PP_P_ SH151970 -16.2925 87.2775 -1 -16.2925 87.2775 -16.2925 87.2775 TC 35 -16.2968 87.3081 2 -16.2925 87.3425 TC 55 3 140
1970040S13101 1970 12 SI MM JUDY 1970-02-14 12:00:00 TS -16.4000 87.4000 bom main 2073 2073 O_____O__OO_O_ jtwc_sh SH151970 -16.4000 87.4000 -1 -16.4000 87.4000 -16.4000 87.4000 TC 35 -16.4000 87.4000 2 -16.4000 87.4000 TC 55 3 139
1970040S13101 1970 12 SI MM JUDY 1970-02-14 15:00:00 TS -16.5509 87.5284 main 2084 2077 P_____P__PP_P_ SH151970 -16.5500 87.5500 -1 -16.5500 87.5500 -16.5500 87.5500 TC 35 -16.5544 87.5073 2 -16.5500 87.4850 TC 52 4 140
1970040S13101 1970 12 SI MM JUDY 1970-02-14 18:00:00 TS -16.7020 87.6669 bom main 2080 2080 O_____O__OP_O_ jtwc_sh SH151970 -16.7000 87.7000 -1 -16.7000 87.7000 -16.7000 87.7000 TC 35 -16.7101 87.6347 2 -16.7000 87.6000 TC 50 4 139
1970040S13101 1970 12 SI MM JUDY 1970-02-14 21:00:00 TS -16.8371 87.7884 main 2082 2082 P_____P__PP_P_ SH151970 -16.8375 87.8075 -1 -16.8375 87.8075 -16.8375 87.8075 TC 35 -16.8357 87.7698 2 -16.8375 87.7500 TC 50 3 132
1970040S13101 1970 12 SI MM JUDY 1970-02-15 00:00:00 TS -16.9000 87.9000 960 bom main 2085 2069 O_____O__OO_O_ jtwc_sh SH151970 -16.9000 87.9000 -1 -16.9000 87.9000 960 -16.9000 87.9000 TC 35 -16.9000 87.9000 2 -16.9000 87.9000 TC 50 2 90
1970040S13101 1970 12 SI MM JUDY 1970-02-15 03:00:00 TS -16.8361 88.0022 main 2069 2054 P_____P__PP_P_ SH151970 -16.8300 88.0000 -1 -16.8300 88.0000 -16.8300 88.0000 TC 35 -16.8606 88.0033 2 -16.8300 88.0075 TC 47 3 46
1970040S13101 1970 12 SI MM JUDY 1970-02-15 06:00:00 TS -16.7120 88.1000 bom main 2054 2039 O_____O__OP_O_ jtwc_sh SH151970 -16.7000 88.1000 -1 -16.7000 88.1000 -16.7000 88.1000 TC 35 -16.7599 88.1002 2 -16.7000 88.1000 TC 45 3 38
1970040S13101 1970 12 SI MM JUDY 1970-02-15 09:00:00 TS -16.5999 88.1979 main 2039 2023 P_____P__PP_P_ SH151970 -16.5925 88.2000 -1 -16.5925 88.2000 -16.5925 88.2000 TC 35 -16.6293 88.1970 2 -16.5925 88.1925 TC 45 3 42
1970040S13101 1970 12 SI MM JUDY 1970-02-15 12:00:00 TS -16.5000 88.3000 bom main 2023 2008 O_____O__OO_O_ jtwc_sh SH151970 -16.5000 88.3000 -1 -16.5000 88.3000 -16.5000 88.3000 TC 35 -16.5000 88.3000 2 -16.5000 88.3000 TC 45 3 52
1970040S13101 1970 12 SI MM JUDY 1970-02-15 15:00:00 TS -16.4444 88.4098 main 2008 2002 P_____P__PP_P_ SH151970 -16.4500 88.3925 -1 -16.4500 88.3925 -16.4500 88.3925 TC 35 -16.4219 88.4218 2 -16.4500 88.4500 TC 45 2 64
1970040S13101 1970 12 SI MM JUDY 1970-02-15 18:00:00 TS -16.3900 88.5300 bom main 2002 1980 O_____O__OP_O_ jtwc_sh SH151970 -16.4000 88.5000 -1 -16.4000 88.5000 -16.4000 88.5000 TC 35 -16.3500 88.5499 2 -16.4000 88.6000 TC 45 3 60
1970040S13101 1970 12 SI MM JUDY 1970-02-15 21:00:00 TS -16.3016 88.6671 main 1980 1965 P_____P__PP_P_ SH151970 -16.3075 88.6500 -1 -16.3075 88.6500 -16.3075 88.6500 TC 35 -16.2781 88.6781 2 -16.3075 88.7075 TC 42 3 54
1970040S13101 1970 12 SI MM JUDY 1970-02-16 00:00:00 TS -16.2000 88.8000 960 bom main 1965 1950 O_____O__OO_O_ jtwc_sh SH151970 -16.2000 88.8000 -1 -16.2000 88.8000 960 -16.2000 88.8000 TC 35 -16.2000 88.8000 2 -16.2000 88.8000 TC 40 3 49
1970040S13101 1970 12 SI MM JUDY 1970-02-16 03:00:00 TS -16.0990 88.9067 main 1950 1934 P_____P__PP_P_ SH151970 -16.1000 88.9075 -1 -16.1000 88.9075 -16.1000 88.9075 TC 35 -16.0950 88.9113 2 -16.1000 88.9000 TC 40 3 43
1970040S13101 1970 12 SI MM JUDY 1970-02-16 06:00:00 TS -15.9970 89.0030 bom main 1934 1919 O_____O__OP_O_ jtwc_sh SH151970 -16.0000 89.0000 -1 -16.0000 89.0000 -16.0000 89.0000 TC 35 -15.9850 89.0150 2 -16.0000 89.0000 TC 40 3 43
1970040S13101 1970 12 SI MM JUDY 1970-02-16 09:00:00 TS -15.8950 89.1038 main 1919 1904 P_____P__PP_P_ SH151970 -15.9000 89.1000 -1 -15.9000 89.1000 -15.9000 89.1000 TC 35 -15.8825 89.1113 2 -15.8925 89.1075 TC 37 3 44
1970040S13101 1970 12 SI MM JUDY 1970-02-16 12:00:00 TS -15.8000 89.2000 bom main 1904 1889 O_____O__OO_O_ jtwc_sh SH151970 -15.8000 89.2000 -1 -15.8000 89.2000 -15.8000 89.2000 TC 35 -15.8000 89.2000 2 -15.8000 89.2000 TC 35 3 42
1970040S13101 1970 12 SI MM JUDY 1970-02-16 15:00:00 TS -15.6993 89.2926 main 1889 1873 P_____P__PP_P_ SH151970 -15.6775 89.3075 -1 -15.6775 89.3075 -15.6775 89.3075 TC 35 -15.7291 89.2903 2 -15.7350 89.2500 TC 35 2 46
1970040S13101 1970 12 SI MM JUDY 1970-02-16 18:00:00 TS -15.6365 89.3745 bom main 1873 1873 O_____O__OP_O_ jtwc_sh SH151970 -15.6000 89.4000 -1 -15.6000 89.4000 -15.6000 89.4000 TC 35 -15.6825 89.3725 2 -15.7000 89.3000 TC 35 2 68
1970040S13101 1970 12 SI MM JUDY 1970-02-16 21:00:00 TS -15.6414 89.4432 main 1873 1867 P_____P__PP_P_ SH151970 -15.6200 89.4575 -1 -15.6200 89.4575 -15.6200 89.4575 TC 35 -15.6697 89.4434 2 -15.6775 89.4000 TC 35 1 118
1970040S13101 1970 12 SI MM JUDY 1970-02-17 00:00:00 TS -15.7000 89.5000 960 bom main 1876 1876 O_____O__OO_O_ jtwc_sh SH151970 -15.7000 89.5000 -1 -15.7000 89.5000 960 -15.7000 89.5000 TC 35 -15.7000 89.5000 2 -15.7000 89.5000 TC 35 2 141
1970040S13101 1970 12 SI MM JUDY 1970-02-17 03:00:00 TS -15.7829 89.5570 main 1880 1880 P_____P__PP_P_ SH151970 -15.7850 89.5575 -1 -15.7850 89.5575 -15.7850 89.5575 TC 35 -15.7819 89.5474 2 -15.7775 89.5650 TC 32 2 156
1970040S13101 1970 12 SI MM JUDY 1970-02-17 06:00:00 TS -15.9010 89.5960 bom main 1889 1889 O_____O__OP_O_ jtwc_sh SH151970 -15.9000 89.6000 -1 -15.9000 89.6000 -15.9000 89.6000 TC 35 -15.9050 89.5799 2 -15.9000 89.6000 TC 30 3 172
1970040S13101 1970 12 SI MM JUDY 1970-02-17 09:00:00 TS -16.0486 89.6055 main 1898 1908 P_____P__PP_P_ SH151970 -16.0500 89.6075 -1 -16.0500 89.6075 -16.0500 89.6075 TC 35 -16.0506 89.5975 2 -16.0425 89.6075 TC 32 3 0
1970040S13101 1970 12 SI MM JUDY 1970-02-17 12:00:00 TS -16.2000 89.6000 bom main 1917 1917 O_____O__OO_O_ jtwc_sh SH151970 -16.2000 89.6000 -1 -16.2000 89.6000 -16.2000 89.6000 TC 35 -16.2000 89.6000 2 -16.2000 89.6000 TC 35 3 0
1970040S13101 1970 12 SI MM JUDY 1970-02-17 15:00:00 TS -16.3059 89.6095 main 1926 1926 P_____P__PP_P_ SH151970 -16.3000 89.6075 -1 -16.3000 89.6075 -16.3000 89.6075 TC 35 -16.2721 89.6174 2 -16.3575 89.6075 TC 42 2 0
1970040S13101 1970 12 SI MM JUDY 1970-02-17 18:00:00 TS -16.4105 89.6034 bom main 1936 1936 O_____O__OP_O_ jtwc_sh SH151970 -16.4000 89.6000 -1 -16.4000 89.6000 -16.4000 89.6000 TC 35 -16.3524 89.6168 2 -16.5000 89.6000 TC 50 2 184
1970040S13101 1970 12 SI MM JUDY 1970-02-17 21:00:00 TS -16.5148 89.5805 main 1945 1945 P_____P__PP_P_ SH151970 -16.5125 89.5799 -1 -16.5125 89.5799 -16.5125 89.5799 TC 50 -16.4815 89.5828 2 -16.5550 89.5798 TC 57 3 199
1970040S13101 1970 12 SI MM JUDY 1970-02-18 00:00:00 TS -16.7000 89.5000 960 bom main 1970 1970 O_____O__OO_O_ jtwc_sh SH151970 -16.7000 89.5000 -1 -16.7000 89.5000 960 -16.7000 89.5000 TC 65 -16.7000 89.5000 4 -16.7000 89.5000 TC 65 6 206
1970040S13101 1970 12 SI MM JUDY 1970-02-18 03:00:00 TS -17.0273 89.3274 main 2010 2010 P_____P__PP_P_ SH151970 -16.9900 89.3225 -1 -16.9900 89.3225 -16.9900 89.3225 TC 65 -17.0689 89.3468 4 -17.0975 89.3226 TC 67 9 206
1970040S13101 1970 12 SI MM JUDY 1970-02-18 06:00:00 TS -17.4650 89.1092 bom main 2068 2068 O_____O__OP_O_ jtwc_sh SH151970 -17.4000 89.1000 -1 -17.4000 89.1000 -17.4000 89.1000 TC 65 -17.5252 89.1458 4 -17.6000 89.1000 TC 70 10 203
1970040S13101 1970 12 SI MM JUDY 1970-02-18 09:00:00 TS -17.9868 88.9044 main 2127 2127 P_____P__PP_P_ SH151970 -17.9500 88.9001 -1 -17.9500 88.9001 -17.9500 88.9001 TC 65 -18.0189 88.9218 4 -18.0650 88.8999 TC 65 11 201
1970040S13101 1970 12 SI MM JUDY 1970-02-18 12:00:00 TS -18.5000 88.7000 bom main 2186 2186 O_____O__OO_O_ jtwc_sh SH151970 -18.5000 88.7000 -1 -18.5000 88.7000 -18.5000 88.7000 TC 65 -18.5000 88.7000 4 -18.5000 88.7000 TC 60 10 205
1970040S13101 1970 12 SI MM JUDY 1970-02-18 15:00:00 TS -18.8468 88.4870 main 2225 2235 P_____P__PP_P_ SH151970 -18.8725 88.4923 -1 -18.8725 88.4923 -18.8725 88.4923 TC 50 -18.7589 88.4656 4 -18.8575 88.4924 TC 55 8 210
1970040S13101 1970 12 SI MM JUDY 1970-02-18 18:00:00 TS -19.1636 88.2893 bom main 2274 2274 O_____O__OP_O_ jtwc_sh SH151970 -19.2000 88.3000 -1 -19.2000 88.3000 -19.2000 88.3000 TC 35 -19.0182 88.2465 4 -19.2000 88.3000 TC 50 7 209
1970040S13101 1970 12 SI MM JUDY 1970-02-18 21:00:00 TS -19.4837 88.1089 main 2314 2314 P_____P__PP_P_ SH151970 -19.5175 88.1126 -1 -19.5175 88.1126 -19.5175 88.1126 TC 35 -19.3933 88.0792 4 -19.4726 88.1273 TC 42 9 198
1970040S13101 1970 12 SI MM JUDY 1970-02-19 00:00:00 TS -20.0000 88.0000 985 bom main 2367 2367 O_____O__OO_O_ jtwc_sh SH151970 -20.0000 88.0000 -1 -20.0000 88.0000 985 -20.0000 88.0000 TC 35 -20.0000 88.0000 2 -20.0000 88.0000 TC 35 14 185
1970040S13101 1970 12 SI MM JUDY 1970-02-19 03:00:00 TS -20.8604 87.9805 main 2433 2433 P_____P__PP_P_ SH151970 -20.7276 87.9907 -1 -20.8534 88.0093 -20.7276 87.9907 TC 35 -20.9207 88.0351 2 -21.0725 87.8765 TC 35 20 178
1970040S13101 1970 12 SI MM JUDY 1970-02-19 06:00:00 TS -21.9693 88.0750 bom main 2502 2502 O_____O__OP_O_ jtwc_sh SH151970 -21.8000 88.1000 -1 -21.8000 88.1000 -21.8000 88.1000 TC 35 -22.1027 88.1664 2 -22.4000 87.9000 TC 35 23 173
1970040S13101 1970 12 SI MM JUDY 1970-02-19 09:00:00 TS -23.0885 88.2710 main 2544 2505 P_____P__PP_P_ SH151970 -23.2451 88.3180 -1 -22.4510 88.2265 -23.2451 88.3180 TC 35 -23.4587 88.3648 2 -23.6802 88.1723 TC 35 20 169
1970040S13101 1970 12 SI MM JUDY 1970-02-19 12:00:00 TS -23.9128 88.4983 main 2505 2504 O_____P__OO_O_ jtwc_sh SH151970 -24.9000 88.6000 -1 -22.9256 88.3967 -24.9000 88.6000 TC 35 -24.9000 88.6000 2 -24.9000 88.6000 TC 35 3 122
1970040S13101 1970 12 SI MM JUDY 1970-02-19 15:00:00 NR -23.2670 88.5844 main 2509 2484 ______P_______ SH151970 -1 -23.2670 88.5844 TC 2 TC 5 32
1970040S13101 1970 12 SI MM JUDY 1970-02-19 18:00:00 NR -23.5187 88.7635 main 2484 2470 ______P_______ -1 -23.5187 88.7635 2 5 147
1970040S13101 1970 12 SI MM JUDY 1970-02-19 21:00:00 NR -23.7238 88.9076 main 2470 2455 ______P_______ -1 -23.7238 88.9076 2 5 153
1970040S13101 1970 12 SI MM JUDY 1970-02-20 00:00:00 NR -23.9258 88.9905 main 2455 2453 ______P_______ -1 -23.9258 88.9905 4 162
1970040S13101 1970 12 SI MM JUDY 1970-02-20 01:00:00 NR -24.0000 89.0000 995 bom main 2453 2451 ______O_______ -1 -24.0000 89.0000 995 7 200
1970040S13101 1970 12 SI MM JUDY 1970-02-20 03:00:00 NR -24.2418 88.8678 main 2459 2457 ______P_______ -1 -24.2418 88.8678 9 212
1970040S13101 1970 12 SI MM JUDY 1970-02-20 06:00:00 NR -24.6089 88.5791 main 2481 2481 ______P_______ -1 -24.6089 88.5791 9 219
1970040S13101 1970 12 SI MM JUDY 1970-02-20 09:00:00 NR -24.9800 88.2211 main 2514 2514 ______P_______ -1 -24.9800 88.2211 10 222
1970040S13101 1970 12 SI MM JUDY 1970-02-20 12:00:00 NR -25.3540 87.8383 main 2547 2547 ______P_______ -1 -25.3540 87.8383 10 222
1970040S13101 1970 12 SI MM JUDY 1970-02-20 15:00:00 NR -25.7303 87.4755 main 2572 2571 ______P_______ -1 -25.7303 87.4755 10 218
1970040S13101 1970 12 SI MM JUDY 1970-02-20 18:00:00 NR -26.1086 87.1784 main 2597 2596 ______P_______ -1 -26.1086 87.1784 9 210
1970040S13101 1970 12 SI MM JUDY 1970-02-20 21:00:00 NR -26.4891 86.9929 main 2612 2608 ______P_______ -1 -26.4891 86.9929 8 194
1970040S13101 1970 12 SI MM JUDY 1970-02-21 00:00:00 NR -26.8719 86.9657 main 2608 2607 ______P_______ -1 -26.8719 86.9657 8 178
1970040S13101 1970 12 SI MM JUDY 1970-02-21 01:00:00 NR -27.0000 87.0000 1000 bom main 2607 2585 ______O_______ -1 -27.0000 87.0000 1000 9 149
1970040S13101 1970 12 SI MM JUDY 1970-02-21 03:00:00 NR -27.2780 87.2357 main 2585 2534 ______P_______ -1 -27.2780 87.2357 12 137
1970040S13101 1970 12 SI MM JUDY 1970-02-21 06:00:00 NR -27.7012 87.7397 main 2534 2463 ______P_______ -1 -27.7012 87.7397 13 129
1970040S13101 1970 12 SI MM JUDY 1970-02-21 09:00:00 NR -28.1235 88.3948 main 2463 2385 ______P_______ -1 -28.1235 88.3948 15 124
1970040S13101 1970 12 SI MM JUDY 1970-02-21 12:00:00 NR -28.5357 89.1671 main 2385 2308 ______P_______ -1 -28.5357 89.1671 16 119
1970040S13101 1970 12 SI WA JUDY 1970-02-21 15:00:00 NR -28.9286 90.0216 main 2308 2222 ______P_______ -1 -28.9286 90.0216 17 116
1970040S13101 1970 12 SI WA JUDY 1970-02-21 18:00:00 NR -29.2940 90.9228 main 2222 2138 ______P_______ -1 -29.2940 90.9228 17 114
1970040S13101 1970 12 SI WA JUDY 1970-02-21 21:00:00 NR -29.6245 91.8339 main 2138 2054 ______P_______ -1 -29.6245 91.8339 17 112
1970040S13101 1970 12 SI WA JUDY 1970-02-22 00:00:00 NR -29.9137 92.7179 main 2054 2027 ______P_______ -1 -29.9137 92.7179 16 110
1970040S13101 1970 12 SI WA JUDY 1970-02-22 01:00:00 NR -30.0000 93.0000 1002 bom main 2027 1982 ______O_______ -1 -30.0000 93.0000 1002 14 113
1970040S13101 1970 12 SI WA JUDY 1970-02-22 03:00:00 NR -30.1856 93.4762 main 1982 1919 ______P_______ -1 -30.1856 93.4762 13 113
1970040S13101 1970 12 SI WA JUDY 1970-02-22 06:00:00 NR -30.4366 94.1759 main 1919 1859 ______P_______ -1 -30.4366 94.1759 13 111
1970040S13101 1970 12 SI WA JUDY 1970-02-22 09:00:00 NR -30.6507 94.8556 main 1859 1805 ______P_______ -1 -30.6507 94.8556 12 109
1970040S13101 1970 12 SI WA JUDY 1970-02-22 12:00:00 NR -30.8239 95.5118 main 1805 1751 ______P_______ -1 -30.8239 95.5118 11 105
1970040S13101 1970 12 SI WA JUDY 1970-02-22 15:00:00 NR -30.9520 96.1413 main 1754 1698 ______P_______ -1 -30.9520 96.1413 11 101
1970040S13101 1970 12 SI WA JUDY 1970-02-22 18:00:00 NR -31.0308 96.7404 main 1698 1646 ______P_______ -1 -31.0308 96.7404 10 96
1970040S13101 1970 12 SI WA JUDY 1970-02-22 21:00:00 NR -31.0562 97.3056 main 1646 1597 ______P_______ -1 -31.0562 97.3056 9 90
1970040S13101 1970 12 SI WA JUDY 1970-02-23 00:00:00 NR -31.0242 97.8331 main 1597 1579 ______P_______ -1 -31.0242 97.8331 9 85
1970040S13101 1970 12 SI WA JUDY 1970-02-23 01:00:00 NR -31.0000 98.0000 1002 bom main 1579 1548 ______O_______ -1 -31.0000 98.0000 1002 9 77
1970040S13101 1970 12 SI WA JUDY 1970-02-23 03:00:00 NR -30.9312 98.3199 main 1548 1499 ______P_______ -1 -30.9312 98.3199 8 72
1970040S13101 1970 12 SI WA JUDY 1970-02-23 06:00:00 NR -30.7808 98.7671 main 1499 1456 ______P_______ -1 -30.7808 98.7671 8 65
1970040S13101 1970 12 SI WA JUDY 1970-02-23 09:00:00 NR -30.5808 99.1797 main 1456 1411 ______P_______ -1 -30.5808 99.1797 8 57
1970040S13101 1970 12 SI WA JUDY 1970-02-23 12:00:00 NR -30.3392 99.5623 main 1411 1377 ______P_______ -1 -30.3392 99.5623 8 51
1970040S13101 1970 12 SI WA JUDY 1970-02-23 15:00:00 NR -30.0637 99.9201 main 1377 1331 ______P_______ -1 -30.0637 99.9201 8 46
1970040S13101 1970 12 SI WA JUDY 1970-02-23 18:00:00 NR -29.7621 100.258 main 1331 1293 ______P_______ -1 -29.7621 100.258 8 43
1970040S13101 1970 12 SI WA JUDY 1970-02-23 21:00:00 NR -29.4421 100.582 main 1293 1258 ______P_______ -1 -29.4421 100.582 9 41
1970040S13101 1970 12 SI WA JUDY 1970-02-24 00:00:00 NR -29.1113 100.896 main 1258 1246 ______P_______ -1 -29.1113 100.896 9 40
1970040S13101 1970 12 SI WA JUDY 1970-02-24 01:00:00 NR -29.0000 101.000 1010 bom main 1246 ______O_______ -1 -29.0000 101.000 1010 9 39

IBTrACS Databaseについて

本データベースは、米国NOAAが公開する1842年以降の世界の熱帯低気圧のベストトラックデータアーカイブInternational Best Track Archive for Climate Stewardship (IBTrACS)を、ウェブで閲覧しやすい形式に変換したものです。

最終更新日:2021-12-06